Airfield :







YOU CAN JOIN US ON...

 
LOGIN :

Register | Disclaimer

   EN    FR    IT 

 









Legend :    VFR   Marginal VFR   IFR   Intensive IFR   Very Intensive IFR
Visi :
Ceiling :
>= 8 km
>= 3000ft
5 to 8 km
1000 to 3000 ft
1500m to 5 km
500 to 1000 ft
800 to 1500m
200 to 500 ft
< 800m
< 200 ft
Symbols :   Thunderstorms  Fog  Heavy snow  Heavy precipitations  Wind > 20 kt






- Airport Elevation : 108 ft
- IATA code : YAY


CYAY - St Anthony

CURRENT METAR :
  • 122000Z AUTO 24009KT 9SM BKN140 OVC160 M12/M17 A2995 RMK SLP147

EXPIRED METARs :
  • 121900Z AUTO 25010G15KT 9SM CLR M12/M18 A2995 RMK SLP146
  • 121800Z AUTO 25016KT 9SM CLR M12/M19 A2996 RMK SLP150

TAF TAF CYAY
Valid from the 12 at 20:00 until the 13 at 08:00 UTC


121938Z 1220/1308 25012G22KT P6SM SKC
FM122100 28012G22KT P6SM SCT030 BKN100
BECMG 1222/1224 27015G25KT
FM130000 26018G28KT P6SM SCT020 BKN070
TEMPO 1300/1308 5SM -SHSN BKN020
BECMG 1303/1305 28025G35KT RMK FCST BASED ON AUTO OBS. NXT FCST BY 130200Z



MET'MAP, your aeronautical weather chart ! - Copyright ORBIFLY December 2007 - Disclaimer

ORBIFLY MET'MAP TEAM :

Programming & Development : Alexandra Zaïnal
Concept & original design : Baudouin d'Aumeries
Assistance for programming : Marc-Olivier Méhu
Technical & hardware support : Manuel Goepfert

Contact : metmap@orbifly.com




SOURCES & CREDITS :

   NOAA